Time;durP1;ratioP1;P1;durP2;ratioP2;P2;SDS_P1;SDS_P2;PMS_P1;PMS_P2;Temp;Humidity;BMP_temperature;BMP_pressure;BME280_temperature;BME280_humidity;BME280_pressure;Samples;Min_cycle;Max_cycle;Signal;HPM_P1;HPM_P2
2022/03/20 00:00:38;;;;;;;;;;;;;;;21.48;38.18;103580.34;5095717;27;4239;-52
2022/03/20 00:03:06;;;;;;;;;;;;;;;21.50;38.22;103582.66;5096065;28;4139;-56
2022/03/20 00:05:34;;;;;;;;;;;;;;;21.54;38.38;103589.53;5088450;28;4180;-54
2022/03/20 00:08:01;;;;;;;;;;;;;;;21.49;38.32;103581.13;5091760;28;4375;-54
2022/03/20 00:10:28;;;;;;;;;;;;;;;21.45;38.26;103580.78;5098434;28;4167;-52
2022/03/20 00:12:54;;;;;;;;;;;;;;;21.48;38.20;103585.38;5095340;28;6364;-55
2022/03/20 00:15:20;;;;;;;;;;;;;;;21.49;38.28;103586.91;5095054;27;5483;-56
2022/03/20 00:17:47;;;;;;;;;;;;;;;21.49;38.42;103581.13;5100398;28;5406;-56
2022/03/20 00:20:13;;;;;;;;;;;;;;;21.50;38.29;103585.53;5095017;27;4431;-56
2022/03/20 00:22:39;;;;;;;;;;;;;;;21.46;38.24;103577.31;5100824;27;5405;-54
2022/03/20 00:25:06;;;;;;;;;;;;;;;21.46;38.21;103582.31;5100560;28;4230;-55
2022/03/20 00:27:33;;;;;;;;;;;;;;;21.44;38.26;103579.25;5097127;28;5267;-55
2022/03/20 00:29:59;;;;;;;;;;;;;;;21.42;38.42;103570.44;5081507;28;4181;-53
2022/03/20 00:32:26;;;;;;;;;;;;;;;21.42;38.35;103576.97;5094748;28;6249;-56
2022/03/20 00:34:57;;;;;;;;;;;;;;;21.45;38.30;103569.25;5098870;27;4240;-54
2022/03/20 00:37:23;;;;;;;;;;;;;;;21.45;38.40;103572.91;5098756;28;4231;-56
2022/03/20 00:39:51;;;;;;;;;;;;;;;21.46;38.41;103565.78;5095486;27;5528;-55
2022/03/20 00:42:17;;;;;;;;;;;;;;;21.45;38.41;103564.25;5095363;28;5248;-53
2022/03/20 00:44:44;;;;;;;;;;;;;;;21.48;38.14;103568.06;5097853;28;5304;-55
2022/03/20 00:47:11;;;;;;;;;;;;;;;21.47;38.21;103557.91;5094870;27;4234;-56
2022/03/20 00:49:37;;;;;;;;;;;;;;;21.45;38.17;103564.25;5097403;27;4220;-55
2022/03/20 00:52:04;;;;;;;;;;;;;;;21.44;38.26;103561.94;5097641;27;4448;-55
2022/03/20 00:54:31;;;;;;;;;;;;;;;21.46;38.17;103565.00;5094745;27;4712;-55
2022/03/20 00:56:58;;;;;;;;;;;;;;;21.43;38.20;103563.31;5098666;27;4250;-54
2022/03/20 00:59:24;;;;;;;;;;;;;;;21.44;38.27;103561.94;5099442;28;5475;-55
2022/03/20 01:01:51;;;;;;;;;;;;;;;21.41;38.22;103558.13;5094119;27;4181;-54
2022/03/20 01:04:17;;;;;;;;;;;;;;;21.45;38.38;103557.72;5094347;27;5364;-55
2022/03/20 01:06:44;;;;;;;;;;;;;;;21.44;38.20;103556.97;5097014;28;4203;-54
2022/03/20 01:09:10;;;;;;;;;;;;;;;21.44;38.16;103556.19;5096614;27;4174;-56
2022/03/20 01:11:38;;;;;;;;;;;;;;;21.44;38.30;103556.19;5098099;28;4156;-55
2022/03/20 01:14:06;;;;;;;;;;;;;;;21.41;38.15;103552.38;5095888;28;5406;-56
2022/03/20 01:16:32;;;;;;;;;;;;;;;21.42;38.16;103553.16;5094664;28;4220;-54
2022/03/20 01:18:59;;;;;;;;;;;;;;;21.40;38.13;103550.84;5096220;27;4278;-55
2022/03/20 01:21:25;;;;;;;;;;;;;;;21.40;38.12;103552.94;5095598;28;4224;-56
2022/03/20 01:23:52;;;;;;;;;;;;;;;21.42;38.41;103550.28;5098486;27;4252;-55
2022/03/20 01:26:18;;;;;;;;;;;;;;;21.41;38.15;103546.59;5097196;27;4221;-56
2022/03/20 01:28:44;;;;;;;;;;;;;;;21.44;38.18;103544.66;5096388;27;4188;-54
2022/03/20 01:31:11;;;;;;;;;;;;;;;21.44;38.26;103533.91;5099707;27;5256;-54
2022/03/20 01:33:37;;;;;;;;;;;;;;;21.43;38.15;103546.03;5096368;28;4283;-55
2022/03/20 01:36:03;;;;;;;;;;;;;;;21.40;38.18;103527.78;5096424;28;4093;-55
2022/03/20 01:38:30;;;;;;;;;;;;;;;21.38;38.34;103529.72;5094768;27;5664;-56
2022/03/20 01:40:56;;;;;;;;;;;;;;;21.39;38.30;103519.69;5096674;28;4235;-54
2022/03/20 01:43:23;;;;;;;;;;;;;;;21.40;38.07;103529.88;5096539;27;4026;-55
2022/03/20 01:45:49;;;;;;;;;;;;;;;21.42;38.17;103530.09;5097311;27;4228;-54
2022/03/20 01:48:15;;;;;;;;;;;;;;;21.40;38.11;103532.78;5096783;27;5756;-55
2022/03/20 01:50:42;;;;;;;;;;;;;;;21.41;38.27;103522.78;5098436;28;4410;-54
2022/03/20 01:53:08;;;;;;;;;;;;;;;21.42;38.15;103524.31;5098283;28;4341;-55
2022/03/20 01:55:34;;;;;;;;;;;;;;;21.42;38.15;103515.69;5098127;27;5785;-56
2022/03/20 01:58:01;;;;;;;;;;;;;;;21.44;38.29;103515.81;5095466;28;4223;-56
2022/03/20 02:00:28;;;;;;;;;;;;;;;21.43;38.14;103514.31;5096989;27;4514;-56
2022/03/20 02:02:55;;;;;;;;;;;;;;;21.39;38.09;103508.91;5082064;28;5387;-51
2022/03/20 02:05:22;;;;;;;;;;;;;;;21.42;38.14;103501.25;5097716;27;5196;-55
2022/03/20 02:07:48;;;;;;;;;;;;;;;21.40;38.01;103495.28;5096620;27;5704;-56
2022/03/20 02:10:14;;;;;;;;;;;;;;;21.44;38.14;103495.63;5094346;28;4047;-55
2022/03/20 02:12:41;;;;;;;;;;;;;;;21.45;37.97;103494.31;5095018;28;5415;-56
2022/03/20 02:15:09;;;;;;;;;;;;;;;21.46;37.96;103490.06;5098312;28;4256;-57
2022/03/20 02:17:36;;;;;;;;;;;;;;;21.47;37.92;103482.94;5089604;27;4086;-54
2022/03/20 02:20:03;;;;;;;;;;;;;;;21.47;38.02;103486.59;5108044;27;4354;-55
2022/03/20 02:22:30;;;;;;;;;;;;;;;21.48;37.92;103487.34;5096588;27;5622;-56
2022/03/20 02:24:56;;;;;;;;;;;;;;;21.44;37.91;103481.22;5096848;27;4225;-56
2022/03/20 02:27:23;;;;;;;;;;;;;;;21.44;38.04;103481.22;5094333;28;4332;-54
2022/03/20 02:29:54;;;;;;;;;;;;;;;21.47;37.95;103482.94;5088925;28;4233;-54
2022/03/20 02:32:21;;;;;;;;;;;;;;;21.46;37.85;103478.50;5092113;28;4200;-56
2022/03/20 02:34:49;;;;;;;;;;;;;;;21.47;37.90;103477.94;5095443;28;4202;-56
2022/03/20 02:37:20;;;;;;;;;;;;;;;21.47;37.96;103480.06;5095553;28;4556;-56
2022/03/20 02:39:46;;;;;;;;;;;;;;;21.45;37.94;103471.25;5099794;27;4077;-55
2022/03/20 02:42:14;;;;;;;;;;;;;;;21.45;37.78;103471.25;5093060;28;4173;-56
2022/03/20 02:44:58;;;;;;;;;;;;;;;21.43;37.94;103468.94;5096871;27;4309;-54
2022/03/20 02:47:35;;;;;;;;;;;;;;;21.42;38.12;103469.56;5095366;28;4166;-53
2022/03/20 02:50:03;;;;;;;;;;;;;;;21.42;37.96;103478.19;5094558;27;4364;-56
2022/03/20 02:52:30;;;;;;;;;;;;;;;21.42;37.99;103475.31;5093810;28;4196;-54
2022/03/20 02:55:00;;;;;;;;;;;;;;;21.40;37.84;103469.34;5096219;28;5222;-56
2022/03/20 02:57:28;;;;;;;;;;;;;;;21.39;37.96;103476.47;5095397;28;4219;-55
2022/03/20 02:59:54;;;;;;;;;;;;;;;21.42;38.03;103472.44;5093086;28;4089;-56
2022/03/20 03:02:20;;;;;;;;;;;;;;;21.42;38.14;103475.31;5091065;28;4153;-55
2022/03/20 03:04:47;;;;;;;;;;;;;;;21.38;37.82;103466.28;5095313;28;4235;-54
2022/03/20 03:07:13;;;;;;;;;;;;;;;21.38;38.09;103469.19;5094799;28;4215;-55
2022/03/20 03:12:24;;;;;;;;;;;;;;;21.39;37.93;103468.56;5088497;27;5265;-56
2022/03/20 03:17:36;;;;;;;;;;;;;;;21.37;37.85;103453.97;5095430;28;5318;-56
2022/03/20 03:20:02;;;;;;;;;;;;;;;21.37;37.93;103468.38;5097306;28;4172;-54
2022/03/20 03:22:29;;;;;;;;;;;;;;;21.37;37.91;103461.88;5090462;28;4169;-55
2022/03/20 03:24:55;;;;;;;;;;;;;;;21.34;37.84;103461.69;5091890;28;4266;-54
2022/03/20 03:27:21;;;;;;;;;;;;;;;21.34;37.84;103449.41;5091975;28;4227;-54
2022/03/20 03:29:48;;;;;;;;;;;;;;;21.37;37.93;103464.75;5093996;28;4246;-55
2022/03/20 03:32:14;;;;;;;;;;;;;;;21.32;38.07;103464.41;5092083;28;5480;-54
2022/03/20 03:37:26;;;;;;;;;;;;;;;21.34;37.94;103460.94;5095053;28;5485;-54
2022/03/20 03:39:52;;;;;;;;;;;;;;;21.31;37.87;103457.13;5091858;28;4236;-55
2022/03/20 03:42:19;;;;;;;;;;;;;;;21.34;38.06;103460.94;5095550;28;4281;-53
2022/03/20 03:44:49;;;;;;;;;;;;;;;21.33;37.87;103448.66;5094973;28;5243;-54
2022/03/20 03:47:15;;;;;;;;;;;;;;;21.31;38.10;103454.25;5097668;27;4239;-54
2022/03/20 03:49:41;;;;;;;;;;;;;;;21.31;38.04;103451.38;5100341;27;4034;-55
2022/03/20 03:52:08;;;;;;;;;;;;;;;21.34;37.90;103455.19;5098565;27;5602;-56
2022/03/20 03:54:34;;;;;;;;;;;;;;;21.31;37.99;103450.59;5101349;27;4164;-55
2022/03/20 03:57:00;;;;;;;;;;;;;;;21.29;38.18;103445.44;5099042;27;4195;-53
2022/03/20 03:59:27;;;;;;;;;;;;;;;21.30;37.94;103444.09;5099822;27;4277;-54
2022/03/20 04:01:54;;;;;;;;;;;;;;;21.32;37.90;103447.13;5097312;28;5155;-55
2022/03/20 04:04:20;;;;;;;;;;;;;;;21.30;38.18;103449.06;5098402;27;5228;-55
2022/03/20 04:06:47;;;;;;;;;;;;;;;21.28;38.01;103443.91;5099461;27;4266;-55
2022/03/20 04:09:13;;;;;;;;;;;;;;;21.31;38.13;103439.84;5098738;28;5424;-55
2022/03/20 04:11:39;;;;;;;;;;;;;;;21.31;37.87;103430.44;5098393;27;4350;-52
2022/03/20 04:14:06;;;;;;;;;;;;;;;21.30;37.86;103432.56;5101507;28;4140;-56
2022/03/20 04:16:32;;;;;;;;;;;;;;;21.30;37.94;103429.66;5096615;28;4197;-54
2022/03/20 04:18:59;;;;;;;;;;;;;;;21.29;37.89;103428.13;5100181;27;4431;-54
2022/03/20 04:21:25;;;;;;;;;;;;;;;21.27;37.86;103433.72;5099603;27;5439;-55
2022/03/20 04:23:51;;;;;;;;;;;;;;;21.27;37.99;103439.50;5101598;27;5234;-53
2022/03/20 04:26:20;;;;;;;;;;;;;;;21.26;37.91;103435.09;5099838;28;4175;-55
2022/03/20 04:28:47;;;;;;;;;;;;;;;21.28;38.00;103441.03;5099860;27;4056;-54
2022/03/20 04:31:16;;;;;;;;;;;;;;;21.28;37.92;103434.47;5099774;28;5368;-53
2022/03/20 04:33:43;;;;;;;;;;;;;;;21.31;37.91;103434.06;5099596;28;4067;-54
2022/03/20 04:36:09;;;;;;;;;;;;;;;21.31;37.90;103433.31;5097621;27;4270;-53
2022/03/20 04:38:36;;;;;;;;;;;;;;;21.28;37.94;103435.25;5097944;27;4182;-55
2022/03/20 04:41:03;;;;;;;;;;;;;;;21.27;37.82;103444.50;5097894;28;4157;-53
2022/03/20 04:43:29;;;;;;;;;;;;;;;21.31;37.99;103445.59;5097267;28;4095;-54
2022/03/20 04:45:56;;;;;;;;;;;;;;;21.28;37.93;103446.00;5100513;28;6383;-56
2022/03/20 04:59:22;;;;;;;;;;;;;;;21.28;38.05;103446.00;5095924;28;6406;-55
2022/03/20 05:01:48;;;;;;;;;;;;;;;21.30;37.86;103457.72;5095809;27;5416;-54
2022/03/20 05:04:15;;;;;;;;;;;;;;;21.28;38.04;103455.44;5100263;27;5266;-55
2022/03/20 05:06:43;;;;;;;;;;;;;;;21.27;37.79;103458.91;5099644;28;4134;-55
2022/03/20 05:14:39;;;;;;;;;;;;;;;21.30;37.76;103467.16;5095976;27;5561;-55
2022/03/20 05:17:08;;;;;;;;;;;;;;;21.31;37.81;103457.13;5093956;27;4339;-55
2022/03/20 05:19:35;;;;;;;;;;;;;;;21.32;37.89;103460.75;5099862;28;4182;-56
2022/03/20 05:22:02;;;;;;;;;;;;;;;21.34;37.75;103458.81;5098685;27;4169;-55
2022/03/20 05:24:29;;;;;;;;;;;;;;;21.36;37.83;103451.72;5095638;28;4194;-54
2022/03/20 05:26:55;;;;;;;;;;;;;;;21.36;37.67;103457.47;5097159;27;4084;-55
2022/03/20 05:29:22;;;;;;;;;;;;;;;21.33;37.72;103454.41;5093186;27;5460;-55
2022/03/20 05:31:49;;;;;;;;;;;;;;;21.37;37.71;103459.00;5096839;27;4071;-53
2022/03/20 05:34:16;;;;;;;;;;;;;;;21.36;37.75;103457.47;5093543;27;4207;-55
2022/03/20 05:36:42;;;;;;;;;;;;;;;21.37;37.65;103464.75;5094744;27;4181;-55
2022/03/20 05:39:09;;;;;;;;;;;;;;;21.32;37.81;103467.28;5096201;27;4204;-56
2022/03/20 05:41:48;;;;;;;;;;;;;;;21.33;37.69;103465.94;5097553;27;4235;-55
2022/03/20 05:44:16;;;;;;;;;;;;;;;21.36;37.81;103471.88;5095801;27;4108;-55
2022/03/20 05:46:43;;;;;;;;;;;;;;;21.38;37.73;103472.06;5098413;27;5303;-54
2022/03/20 05:49:09;;;;;;;;;;;;;;;21.39;37.73;103473.56;5097631;27;5486;-54
2022/03/20 05:51:37;;;;;;;;;;;;;;;21.38;37.71;103477.81;5096558;27;5335;-55
2022/03/20 05:54:03;;;;;;;;;;;;;;;21.39;37.70;103485.09;5095934;28;4180;-52
2022/03/20 05:59:15;;;;;;;;;;;;;;;21.38;37.79;103477.81;5097116;27;5433;-55
2022/03/20 06:01:42;;;;;;;;;;;;;;;21.39;37.74;103480.09;5095719;27;5514;-56
2022/03/20 06:04:08;;;;;;;;;;;;;;;21.36;37.66;103475.53;5096086;27;4164;-55
2022/03/20 06:06:35;;;;;;;;;;;;;;;21.34;37.66;103476.09;5097417;27;4232;-56
2022/03/20 06:09:03;;;;;;;;;;;;;;;21.32;37.65;103470.16;5088272;28;4305;-55
2022/03/20 06:11:29;;;;;;;;;;;;;;;21.36;37.72;103483.41;5092211;28;4153;-55
2022/03/20 06:13:56;;;;;;;;;;;;;;;21.33;37.71;103468.81;5097465;27;5251;-55
2022/03/20 06:16:22;;;;;;;;;;;;;;;21.33;37.71;103476.72;5095291;28;5478;-55
2022/03/20 06:18:49;;;;;;;;;;;;;;;21.30;37.73;103481.56;5096320;28;4343;-55
2022/03/20 06:21:15;;;;;;;;;;;;;;;21.24;37.84;103469.50;5097016;28;4317;-54
2022/03/20 06:23:41;;;;;;;;;;;;;;;21.27;37.86;103484.84;5094646;28;5433;-55
2022/03/20 06:26:08;;;;;;;;;;;;;;;21.29;37.85;103485.78;5095087;27;4206;-54
2022/03/20 06:28:35;;;;;;;;;;;;;;;21.28;37.88;103486.38;5099338;27;4054;-53
2022/03/20 06:31:10;;;;;;;;;;;;;;;21.30;37.76;103493.09;5094472;28;6418;-53
2022/03/20 06:33:54;;;;;;;;;;;;;;;21.30;37.77;103492.31;5095806;27;4185;-54
2022/03/20 06:36:21;;;;;;;;;;;;;;;21.29;37.91;103485.78;5096477;28;4334;-55
2022/03/20 06:38:47;;;;;;;;;;;;;;;21.31;37.76;103485.19;5095965;28;5729;-54
2022/03/20 06:41:13;;;;;;;;;;;;;;;21.33;38.07;103480.38;5095538;28;5285;-53
2022/03/20 06:43:40;;;;;;;;;;;;;;;21.33;37.87;103482.50;5095856;28;4072;-55
2022/03/20 06:46:06;;;;;;;;;;;;;;;21.33;37.91;103477.47;5095797;27;4248;-55
2022/03/20 06:48:50;;;;;;;;;;;;;;;21.31;37.95;103485.94;5096411;28;4409;-53
2022/03/20 06:51:17;;;;;;;;;;;;;;;21.33;37.93;103483.25;5094378;27;4274;-54
2022/03/20 06:53:43;;;;;;;;;;;;;;;21.33;37.99;103483.25;5098990;28;5229;-54
2022/03/20 06:56:09;;;;;;;;;;;;;;;21.33;38.03;103483.25;5095125;28;4303;-55
2022/03/20 06:58:36;;;;;;;;;;;;;;;21.34;38.07;103490.53;5095865;28;4099;-52
2022/03/20 07:01:02;;;;;;;;;;;;;;;21.36;38.37;103492.06;5094825;28;4150;-51
2022/03/20 07:03:30;;;;;;;;;;;;;;;21.34;38.70;103490.53;5095465;28;4177;-52
2022/03/20 07:05:56;;;;;;;;;;;;;;;21.37;38.73;103493.56;5096143;28;6234;-53
2022/03/20 07:08:22;;;;;;;;;;;;;;;21.38;38.93;103486.47;5095782;28;4168;-53
2022/03/20 07:10:49;;;;;;;;;;;;;;;21.37;39.00;103484.94;5096158;28;4084;-55
2022/03/20 07:16:01;;;;;;;;;;;;;;;21.38;39.22;103490.09;5093780;28;4062;-58
2022/03/20 07:18:27;;;;;;;;;;;;;;;21.31;39.15;103494.59;5092253;28;5330;-56
2022/03/20 07:20:55;;;;;;;;;;;;;;;21.26;38.67;103495.63;5093293;28;4374;-54
2022/03/20 07:23:22;;;;;;;;;;;;;;;21.28;38.75;103486.38;5085231;28;4752;-53
2022/03/20 07:31:18;;;;;;;;;;;;;;;21.38;38.45;103500.88;5096752;27;4300;-51
2022/03/20 07:33:44;;;;;;;;;;;;;;;21.34;38.42;103493.41;5098310;27;4231;-52
2022/03/20 07:36:12;;;;;;;;;;;;;;;21.36;38.52;103489.94;5097591;27;4309;-53
2022/03/20 07:38:39;;;;;;;;;;;;;;;21.41;38.74;103493.97;5099115;28;4132;-51
2022/03/20 07:41:05;;;;;;;;;;;;;;;21.42;38.90;103501.25;5098124;27;5216;-55
2022/03/20 07:43:31;;;;;;;;;;;;;;;21.45;38.73;103497.19;5098049;27;4404;-53
2022/03/20 07:45:58;;;;;;;;;;;;;;;21.47;39.07;103497.34;5098221;28;4339;-55
2022/03/20 07:48:24;;;;;;;;;;;;;;;21.57;38.99;103500.31;5093534;27;4455;-53
2022/03/20 07:50:50;;;;;;;;;;;;;;;21.52;39.19;103496.34;5093651;27;4226;-52
2022/03/20 07:53:17;;;;;;;;;;;;;;;21.51;39.26;103491.94;5088557;27;4592;-56
2022/03/20 07:55:44;;;;;;;;;;;;;;;21.54;39.55;103499.38;5097424;27;4171;-54
2022/03/20 07:58:10;;;;;;;;;;;;;;;21.56;39.68;103493.03;5092256;27;5262;-57
2022/03/20 08:00:40;;;;;;;;;;;;;;;21.52;40.37;103487.69;5095507;27;4180;-56
2022/03/20 08:03:07;;;;;;;;;;;;;;;21.34;39.49;103490.53;5095869;27;4180;-49
2022/03/20 08:05:33;;;;;;;;;;;;;;;21.36;40.08;103487.06;5097604;28;4082;-48
2022/03/20 08:08:02;;;;;;;;;;;;;;;21.45;39.82;103488.53;5091815;28;4192;-45
2022/03/20 08:10:28;;;;;;;;;;;;;;;21.47;39.91;103485.81;5092695;28;4242;-45
2022/03/20 08:12:55;;;;;;;;;;;;;;;21.47;40.00;103483.69;5097709;27;4209;-47
2022/03/20 08:15:21;;;;;;;;;;;;;;;21.49;40.17;103500.41;5096667;27;4201;-47
2022/03/20 08:17:50;;;;;;;;;;;;;;;21.52;40.25;103496.34;5098172;27;5395;-47
2022/03/20 08:20:16;;;;;;;;;;;;;;;21.52;40.26;103488.44;5093930;27;4180;-44
2022/03/20 08:22:42;;;;;;;;;;;;;;;21.52;40.66;103481.91;5098603;27;4289;-45
2022/03/20 08:25:10;;;;;;;;;;;;;;;21.52;40.34;103491.31;5096334;28;5466;-47
2022/03/20 08:27:45;;;;;;;;;;;;;;;21.52;40.29;103493.44;5092987;28;4234;-46
2022/03/20 08:30:15;;;;;;;;;;;;;;;21.34;37.87;103490.53;5093911;27;4285;-58
2022/03/20 08:32:41;;;;;;;;;;;;;;;20.58;30.72;103502.72;5095852;28;4162;-57
2022/03/20 08:35:08;;;;;;;;;;;;;;;20.34;28.31;103496.34;5099038;28;4208;-58
2022/03/20 08:37:34;;;;;;;;;;;;;;;20.23;27.09;103488.16;5093109;27;4125;-49
2022/03/20 08:40:02;;;;;;;;;;;;;;;20.58;28.14;103485.47;5092137;28;4237;-48
2022/03/20 08:42:29;;;;;;;;;;;;;;;20.83;30.02;103483.34;5096158;28;4417;-50
2022/03/20 08:44:55;;;;;;;;;;;;;;;20.98;33.18;103482.44;5096054;28;5382;-48
2022/03/20 08:47:22;;;;;;;;;;;;;;;21.09;33.95;103484.06;5099065;28;5508;-48
2022/03/20 08:49:49;;;;;;;;;;;;;;;21.18;34.04;103494.91;5098337;28;4106;-48
2022/03/20 08:52:15;;;;;;;;;;;;;;;21.24;34.14;103481.03;5097905;28;4154;-48
2022/03/20 08:54:42;;;;;;;;;;;;;;;21.26;34.22;103481.22;5096041;28;4288;-51
2022/03/20 08:57:08;;;;;;;;;;;;;;;21.29;34.12;103477.13;5097150;28;4224;-47
2022/03/20 08:59:35;;;;;;;;;;;;;;;21.32;34.62;103467.28;5097980;28;4286;-52
2022/03/20 09:02:01;;;;;;;;;;;;;;;21.34;34.79;103466.72;5100134;28;5310;-50
2022/03/20 09:04:28;;;;;;;;;;;;;;;21.34;35.20;103460.94;5093495;28;6741;-49
2022/03/20 09:06:54;;;;;;;;;;;;;;;21.37;35.29;103461.88;5099309;28;4167;-48
2022/03/20 09:09:20;;;;;;;;;;;;;;;21.38;35.53;103466.28;5095146;28;5266;-48
2022/03/20 09:11:47;;;;;;;;;;;;;;;21.40;35.84;103475.13;5095730;28;4103;-50
2022/03/20 09:14:13;;;;;;;;;;;;;;;21.41;35.91;103468.75;5097418;28;5416;-50
2022/03/20 09:19:26;;;;;;;;;;;;;;;21.39;36.23;103468.56;5097647;28;5185;-47
2022/03/20 09:21:52;;;;;;;;;;;;;;;21.41;36.32;103465.13;5099874;28;4234;-49
2022/03/20 09:24:18;;;;;;;;;;;;;;;21.38;36.64;103467.06;5095282;28;4183;-49
2022/03/20 09:26:45;;;;;;;;;;;;;;;21.42;36.56;103461.66;5092390;28;4231;-51
2022/03/20 09:29:14;;;;;;;;;;;;;;;21.41;36.86;103459.34;5093634;28;4257;-49
2022/03/20 09:31:40;;;;;;;;;;;;;;;21.42;36.94;103460.91;5095998;28;5203;-47
2022/03/20 09:34:08;;;;;;;;;;;;;;;21.44;37.10;103453.19;5095714;28;5397;-49
2022/03/20 09:36:36;;;;;;;;;;;;;;;21.43;37.06;103471.06;5099593;28;4057;-50
2022/03/20 09:39:03;;;;;;;;;;;;;;;21.41;37.31;103457.22;5094161;28;5695;-48
2022/03/20 09:41:30;;;;;;;;;;;;;;;21.42;37.21;103455.13;5080649;28;4010;-47
2022/03/20 09:43:56;;;;;;;;;;;;;;;21.45;37.50;103453.94;5095204;28;4196;-49
2022/03/20 09:46:23;;;;;;;;;;;;;;;21.47;37.32;103454.09;5094112;28;5281;-48
2022/03/20 09:48:51;;;;;;;;;;;;;;;21.46;37.60;103455.44;5096573;28;5302;-48
2022/03/20 09:51:17;;;;;;;;;;;;;;;21.45;37.85;103439.53;5076467;28;4241;-50
2022/03/20 09:53:43;;;;;;;;;;;;;;;21.43;37.95;103445.13;5099189;28;4285;-49
2022/03/20 09:56:13;;;;;;;;;;;;;;;21.41;37.99;103445.69;5093331;28;5516;-49
2022/03/20 09:58:39;;;;;;;;;;;;;;;21.46;38.14;103435.28;5093419;28;4442;-46
2022/03/20 10:01:05;;;;;;;;;;;;;;;21.49;38.03;103431.22;5099233;28;4181;-47
2022/03/20 10:03:33;;;;;;;;;;;;;;;21.49;38.05;103431.22;5095992;28;4189;-47
2022/03/20 10:06:03;;;;;;;;;;;;;;;21.48;38.25;103432.56;5096535;28;4404;-47
2022/03/20 10:08:29;;;;;;;;;;;;;;;21.48;38.11;103424.66;5097232;28;5401;-47
2022/03/20 10:11:11;;;;;;;;;;;;;;;21.47;38.16;103428.16;5097538;28;5854;-47
2022/03/20 10:13:37;;;;;;;;;;;;;;;21.49;38.04;103431.22;5099185;28;4196;-49
2022/03/20 10:16:15;;;;;;;;;;;;;;;21.51;38.01;103419.84;5093157;28;4243;-49
2022/03/20 10:18:42;;;;;;;;;;;;;;;21.50;38.22;103412.53;5098884;28;5330;-47
2022/03/20 10:21:09;;;;;;;;;;;;;;;21.51;38.17;103416.97;5091769;28;5227;-49
2022/03/20 10:23:41;;;;;;;;;;;;;;;21.57;38.24;103413.81;5092936;28;5318;-48
2022/03/20 10:26:14;;;;;;;;;;;;;;;21.56;38.37;103415.94;5096225;28;4167;-48
2022/03/20 10:28:49;;;;;;;;;;;;;;;21.57;38.33;103414.56;5096387;28;4200;-51
2022/03/20 10:31:18;;;;;;;;;;;;;;;21.57;38.46;103405.16;5096965;28;5283;-48
2022/03/20 10:33:46;;;;;;;;;;;;;;;21.56;38.66;103407.28;5097515;28;4169;-48
2022/03/20 10:36:13;;;;;;;;;;;;;;;21.56;38.60;103412.31;5096882;28;5462;-51
2022/03/20 10:38:41;;;;;;;;;;;;;;;21.58;38.84;103416.09;5096345;28;4165;-48
2022/03/20 10:41:26;;;;;;;;;;;;;;;21.59;38.84;103411.09;5097557;28;4157;-48
2022/03/20 10:43:56;;;;;;;;;;;;;;;21.59;39.00;103406.09;5099617;28;4242;-50
2022/03/20 10:46:25;;;;;;;;;;;;;;;21.56;39.09;103401.53;5095950;28;6239;-49
2022/03/20 10:48:55;;;;;;;;;;;;;;;21.55;39.27;103394.22;5097229;28;4243;-49
2022/03/20 10:51:37;;;;;;;;;;;;;;;21.58;39.23;103395.13;5093878;28;5207;-50
2022/03/20 10:54:08;;;;;;;;;;;;;;;21.55;39.32;103397.09;5098540;28;4172;-48
2022/03/20 10:56:35;;;;;;;;;;;;;;;21.56;39.29;103387.09;5098283;28;5209;-48
2022/03/20 10:59:16;;;;;;;;;;;;;;;21.57;39.62;103385.72;5096891;28;4124;-48
2022/03/20 11:01:45;;;;;;;;;;;;;;;21.58;39.70;103387.28;5096919;28;4163;-49
2022/03/20 11:04:12;;;;;;;;;;;;;;;21.59;39.67;103388.03;5096068;28;4178;-50
2022/03/20 11:06:43;;;;;;;;;;;;;;;21.58;39.76;103383.59;5097125;28;4211;-48
2022/03/20 11:09:09;;;;;;;;;;;;;;;21.59;39.68;103385.91;5095432;28;4229;-47
2022/03/20 11:11:39;;;;;;;;;;;;;;;21.59;39.85;103377.25;5093036;28;4276;-50
2022/03/20 11:14:08;;;;;;;;;;;;;;;21.57;39.91;103374.19;5092973;28;4176;-49
2022/03/20 11:16:38;;;;;;;;;;;;;;;21.57;40.05;103367.69;5093189;28;4588;-47
2022/03/20 11:19:05;;;;;;;;;;;;;;;21.57;39.85;103362.66;5092349;28;4238;-51
2022/03/20 11:21:33;;;;;;;;;;;;;;;21.59;39.91;103362.09;5092298;28;4197;-50
2022/03/20 11:23:59;;;;;;;;;;;;;;;21.61;40.12;103350.72;5090202;28;5605;-48
2022/03/20 11:26:26;;;;;;;;;;;;;;;21.59;40.02;103359.94;5096560;28;4168;-49
2022/03/20 11:28:54;;;;;;;;;;;;;;;21.58;39.99;103358.44;5090780;28;5325;-47
2022/03/20 11:31:21;;;;;;;;;;;;;;;21.57;40.08;103351.13;5095075;28;4108;-49
2022/03/20 11:33:47;;;;;;;;;;;;;;;21.55;40.04;103345.19;5098505;28;5169;-49
2022/03/20 11:36:15;;;;;;;;;;;;;;;21.56;40.09;103332.31;5092916;28;4145;-48
2022/03/20 11:38:42;;;;;;;;;;;;;;;21.54;40.28;103335.78;5095279;28;6284;-50
2022/03/20 11:41:09;;;;;;;;;;;;;;;21.56;40.02;103343.84;5097208;28;4940;-50
2022/03/20 11:43:37;;;;;;;;;;;;;;;21.56;40.04;103329.44;5090640;28;4092;-48
2022/03/20 11:46:21;;;;;;;;;;;;;;;21.57;40.13;103333.06;5095133;28;4301;-47
2022/03/20 11:49:06;;;;;;;;;;;;;;;21.58;40.11;103323.84;5092809;28;5470;-50
2022/03/20 11:51:51;;;;;;;;;;;;;;;21.59;40.45;103318.81;5092294;28;4231;-52
2022/03/20 11:54:18;;;;;;;;;;;;;;;21.59;40.31;103310.94;5090356;28;4848;-49
2022/03/20 11:56:44;;;;;;;;;;;;;;;21.60;40.36;103309.59;5093973;28;5414;-48
2022/03/20 11:59:31;;;;;;;;;;;;;;;21.59;40.38;103308.03;5096277;28;5227;-49
2022/03/20 12:02:03;;;;;;;;;;;;;;;21.61;40.16;103305.31;5087209;28;4156;-53
2022/03/20 12:04:44;;;;;;;;;;;;;;;21.64;40.28;103298.34;5079838;28;4223;-49
2022/03/20 12:07:14;;;;;;;;;;;;;;;21.65;40.26;103293.38;5077838;28;4201;-52
2022/03/20 12:09:50;;;;;;;;;;;;;;;21.65;40.14;103294.13;5084633;28;5499;-48
2022/03/20 12:12:26;;;;;;;;;;;;;;;21.66;40.16;103284.09;5096388;28;4394;-51
2022/03/20 12:14:53;;;;;;;;;;;;;;;21.64;39.96;103286.81;5080086;28;4082;-50
2022/03/20 12:17:20;;;;;;;;;;;;;;;21.63;40.19;103279.53;5097081;28;4181;-51
2022/03/20 12:19:53;;;;;;;;;;;;;;;21.65;40.13;103273.94;5097983;28;3998;-49
2022/03/20 12:22:19;;;;;;;;;;;;;;;21.66;40.16;103266.03;5098406;28;4156;-48
2022/03/20 12:24:55;;;;;;;;;;;;;;;21.64;40.21;103263.75;5097751;27;4344;-50
2022/03/20 12:27:23;;;;;;;;;;;;;;;21.65;40.24;103267.41;5097186;27;4124;-52
2022/03/20 12:29:57;;;;;;;;;;;;;;;21.64;40.22;103257.97;5097335;28;4122;-50
2022/03/20 12:32:25;;;;;;;;;;;;;;;21.61;40.13;103264.97;5095869;28;5264;-51
2022/03/20 12:35:04;;;;;;;;;;;;;;;21.64;40.13;103263.75;5096321;28;4081;-48
2022/03/20 12:37:32;;;;;;;;;;;;;;;21.66;40.00;103258.16;5098396;28;4109;-52
2022/03/20 12:40:01;;;;;;;;;;;;;;;21.68;40.08;103258.31;5096901;28;4292;-52
2022/03/20 12:42:28;;;;;;;;;;;;;;;21.68;39.89;103252.53;5098578;28;4192;-51
2022/03/20 12:44:55;;;;;;;;;;;;;;;21.66;40.03;103237.97;5097407;28;4312;-50
2022/03/20 12:47:21;;;;;;;;;;;;;;;21.67;39.89;103253.91;5098725;28;4066;-48
2022/03/20 12:50:04;;;;;;;;;;;;;;;21.67;39.86;103251.03;5095750;28;4178;-50
2022/03/20 12:52:31;;;;;;;;;;;;;;;21.66;39.95;103243.72;5097516;28;4296;-49
2022/03/20 12:54:58;;;;;;;;;;;;;;;21.67;40.07;103239.50;5093942;28;4079;-49
2022/03/20 12:57:40;;;;;;;;;;;;;;;21.69;40.07;103245.44;5099007;28;5235;-52
2022/03/20 13:00:10;;;;;;;;;;;;;;;21.68;40.15;103238.13;5097201;28;4285;-58
2022/03/20 13:02:55;;;;;;;;;;;;;;;21.69;39.93;103242.53;5097962;28;4301;-52
2022/03/20 13:05:21;;;;;;;;;;;;;;;21.68;40.09;103232.34;5096767;28;4180;-49
2022/03/20 13:07:47;;;;;;;;;;;;;;;21.70;40.09;103235.41;5098877;28;4144;-52
2022/03/20 13:10:16;;;;;;;;;;;;;;;21.71;39.93;103227.50;5098029;28;4214;-48
2022/03/20 13:13:02;;;;;;;;;;;;;;;21.69;39.87;103241.75;5098944;28;4167;-49
2022/03/20 13:15:29;;;;;;;;;;;;;;;21.70;40.04;103229.63;5093716;27;5280;-47
2022/03/20 13:17:56;;;;;;;;;;;;;;;21.69;40.22;103219.47;5095366;28;4330;-49
2022/03/20 13:20:23;;;;;;;;;;;;;;;21.69;40.06;103219.47;5099118;28;4202;-51
2022/03/20 13:22:50;;;;;;;;;;;;;;;21.71;40.00;103213.84;5096493;28;5369;-47
2022/03/20 13:25:19;;;;;;;;;;;;;;;21.71;40.03;103222.50;5097083;28;5284;-49
2022/03/20 13:27:47;;;;;;;;;;;;;;;21.72;40.10;103215.38;5099686;28;4067;-48
2022/03/20 13:30:15;;;;;;;;;;;;;;;21.73;40.02;103208.22;5094514;28;5213;-49